Archival Weather

Salzburg

Salzburg, Austria (LOWS)

Report from: Friday, May 26, 2023 3:20 PM CEST
Current time: Monday, June 17, 2024 1:14 PM CEST

Current weather – Weather history – Daily summaries
Weather forecast

Temperature22.0°C (71.6°F)
Dew point11.0°C (51.8°F)
Winds 6 kts (3.1 m/s, 6.9 mph) Vrb
Winds variableWinds variable from North-Northwest (340°) to East (90°)
Visibility6.2 mi. (10 km)
Clouds Few clouds 4,000 ft. (1,219 m)
Scattered clouds 6,000 ft. (1,829 m)
Altimeter30.18 in.Hg (1022 mB)
Relative humidity50 %
Density altitude708 ft. (216 m)
Remarks No significant changes expected in the next two hours
Flight conditions Visual Meteorological Conditions
Raw dataLOWS 261320Z 04006KT 340V090 9999 FEW040 SCT060 22/11 Q1022 NOSIG
An error has occurred. This application may no longer respond until reloaded. Reload 🗙